CheckWX is a tool to help pilots better visualize weather data.  It is not intended as a substitute for an official pre-flight weather briefing.

14:44:58 UTC

KPBF METAR
Pine Bluff Regional Grider Field Airport
Pine Bluff, Arkansas, USA
Current

52 mins ago

KPBF 291353Z AUTO 04008KT 4SM -RA BR FEW007 FEW018 OVC055 06/04 A2998 RMK AO2 SLP153 P0005 T00610044
Observed
Jan-29 @ 13:53 UTC
Wind
  • 040° at 8 KTS
Visibility
4 SM
Flight Rules
MVFR
Conditions
Light Rain, Mist
Cloud Levels
  • Few at 700' AGL
  • Few at 1,800' AGL
  • Overcast at 5,500' AGL
Temperature
C / 43°F
Dewpoint
C / 39°F
Humidity
87%
Altimeter
29.98" Hg
Pressure
1015.22 hPa
Current Rain
0.05"
Previous

2 hours ago

KPBF 291308Z AUTO 04007KT 6SM -RA BR SCT007 OVC060 06/05 A2998 RMK AO2 P0001 T00610050
Observed
Jan-29 @ 13:08 UTC
Wind
  • 040° at 7 KTS
Visibility
6 SM
Flight Rules
VFR
Conditions
Light Rain, Mist
Cloud Levels
  • Scattered at 700' AGL
  • Overcast at 6,000' AGL
Temperature
C / 43°F
Dewpoint
C / 41°F
Humidity
93%
Altimeter
29.98" Hg
Pressure
1015.22 hPa
Current Rain
0.01"
Previous

2 hours ago

KPBF 291253Z AUTO 04007KT 5SM -RA BR BKN007 OVC050 07/05 A2997 RMK AO2 SLP149 P0004 T00670050
Observed
Jan-29 @ 12:53 UTC
Wind
  • 040° at 7 KTS
Visibility
5 SM
Flight Rules
IFR
Conditions
Light Rain, Mist
Cloud Levels
  • Broken at 700' AGL
  • Overcast at 5,000' AGL
Temperature
C / 45°F
Dewpoint
C / 41°F
Humidity
87%
Altimeter
29.97" Hg
Pressure
1014.92 hPa
Current Rain
0.04"